sensor_id;sensor_type;location;lat;lon;timestamp;P1;durP1;ratioP1;P2;durP2;ratioP2
37339;SDS011;23223;51.006;7.610;2023-08-07T00:00:12;1.05;;;0.65;;
37339;SDS011;23223;51.006;7.610;2023-08-07T00:02:38;6.20;;;1.63;;
37339;SDS011;23223;51.006;7.610;2023-08-07T00:05:05;4.63;;;1.33;;
37339;SDS011;23223;51.006;7.610;2023-08-07T00:07:31;4.22;;;1.60;;
37339;SDS011;23223;51.006;7.610;2023-08-07T00:09:56;3.67;;;1.50;;
37339;SDS011;23223;51.006;7.610;2023-08-07T00:12:22;3.78;;;1.30;;
37339;SDS011;23223;51.006;7.610;2023-08-07T00:14:49;3.50;;;1.10;;
37339;SDS011;23223;51.006;7.610;2023-08-07T00:17:15;7.20;;;1.25;;
37339;SDS011;23223;51.006;7.610;2023-08-07T00:19:41;2.85;;;1.20;;
37339;SDS011;23223;51.006;7.610;2023-08-07T00:22:06;5.40;;;1.10;;
37339;SDS011;23223;51.006;7.610;2023-08-07T00:24:32;2.15;;;1.08;;
37339;SDS011;23223;51.006;7.610;2023-08-07T00:26:57;2.08;;;1.23;;
37339;SDS011;23223;51.006;7.610;2023-08-07T00:29:23;1.85;;;1.00;;
37339;SDS011;23223;51.006;7.610;2023-08-07T00:31:48;1.00;;;0.70;;
37339;SDS011;23223;51.006;7.610;2023-08-07T00:34:14;2.63;;;0.95;;
37339;SDS011;23223;51.006;7.610;2023-08-07T00:36:40;3.80;;;1.10;;
37339;SDS011;23223;51.006;7.610;2023-08-07T00:39:05;3.50;;;0.85;;
37339;SDS011;23223;51.006;7.610;2023-08-07T00:41:32;1.02;;;0.90;;
37339;SDS011;23223;51.006;7.610;2023-08-07T00:43:58;1.08;;;0.73;;
37339;SDS011;23223;51.006;7.610;2023-08-07T00:46:23;1.35;;;0.60;;
37339;SDS011;23223;51.006;7.610;2023-08-07T00:48:49;2.05;;;1.40;;
37339;SDS011;23223;51.006;7.610;2023-08-07T00:51:17;0.55;;;0.50;;
37339;SDS011;23223;51.006;7.610;2023-08-07T00:53:42;2.63;;;0.90;;
37339;SDS011;23223;51.006;7.610;2023-08-07T00:56:08;1.65;;;0.80;;
37339;SDS011;23223;51.006;7.610;2023-08-07T00:58:34;0.77;;;0.65;;
37339;SDS011;23223;51.006;7.610;2023-08-07T01:00:59;1.77;;;0.95;;
37339;SDS011;23223;51.006;7.610;2023-08-07T01:03:25;2.72;;;1.02;;
37339;SDS011;23223;51.006;7.610;2023-08-07T01:05:51;2.08;;;0.90;;
37339;SDS011;23223;51.006;7.610;2023-08-07T01:08:16;1.35;;;0.77;;
37339;SDS011;23223;51.006;7.610;2023-08-07T01:13:29;1.10;;;0.55;;
37339;SDS011;23223;51.006;7.610;2023-08-07T01:16:04;1.52;;;0.63;;
37339;SDS011;23223;51.006;7.610;2023-08-07T01:18:37;0.43;;;0.43;;
37339;SDS011;23223;51.006;7.610;2023-08-07T01:21:04;2.72;;;0.68;;
37339;SDS011;23223;51.006;7.610;2023-08-07T01:23:30;0.98;;;0.80;;
37339;SDS011;23223;51.006;7.610;2023-08-07T01:25:55;0.90;;;0.88;;
37339;SDS011;23223;51.006;7.610;2023-08-07T01:28:26;1.50;;;0.70;;
37339;SDS011;23223;51.006;7.610;2023-08-07T01:30:55;6.32;;;1.23;;
37339;SDS011;23223;51.006;7.610;2023-08-07T01:33:32;3.20;;;1.23;;
37339;SDS011;23223;51.006;7.610;2023-08-07T01:36:05;3.90;;;0.82;;
37339;SDS011;23223;51.006;7.610;2023-08-07T01:38:32;0.88;;;0.68;;
37339;SDS011;23223;51.006;7.610;2023-08-07T01:40:58;1.00;;;0.65;;
37339;SDS011;23223;51.006;7.610;2023-08-07T01:43:25;1.65;;;1.02;;
37339;SDS011;23223;51.006;7.610;2023-08-07T01:45:52;0.70;;;0.70;;
37339;SDS011;23223;51.006;7.610;2023-08-07T01:48:17;5.13;;;1.77;;
37339;SDS011;23223;51.006;7.610;2023-08-07T01:50:43;0.65;;;0.52;;
37339;SDS011;23223;51.006;7.610;2023-08-07T01:53:08;2.08;;;1.40;;
37339;SDS011;23223;51.006;7.610;2023-08-07T01:55:34;3.08;;;0.88;;
37339;SDS011;23223;51.006;7.610;2023-08-07T01:57:59;5.68;;;1.20;;
37339;SDS011;23223;51.006;7.610;2023-08-07T02:00:25;4.35;;;1.05;;
37339;SDS011;23223;51.006;7.610;2023-08-07T02:02:50;4.88;;;0.95;;
37339;SDS011;23223;51.006;7.610;2023-08-07T02:05:16;7.75;;;1.23;;
37339;SDS011;23223;51.006;7.610;2023-08-07T02:07:42;2.58;;;0.65;;
37339;SDS011;23223;51.006;7.610;2023-08-07T02:10:08;1.67;;;0.68;;
37339;SDS011;23223;51.006;7.610;2023-08-07T02:12:33;1.88;;;0.90;;
37339;SDS011;23223;51.006;7.610;2023-08-07T02:14:59;1.25;;;0.80;;
37339;SDS011;23223;51.006;7.610;2023-08-07T02:17:26;0.90;;;0.55;;
37339;SDS011;23223;51.006;7.610;2023-08-07T02:19:53;0.68;;;0.57;;
37339;SDS011;23223;51.006;7.610;2023-08-07T02:22:18;0.77;;;0.68;;
37339;SDS011;23223;51.006;7.610;2023-08-07T02:24:44;1.75;;;0.88;;
37339;SDS011;23223;51.006;7.610;2023-08-07T02:27:10;0.52;;;0.52;;
37339;SDS011;23223;51.006;7.610;2023-08-07T02:29:35;0.50;;;0.50;;
37339;SDS011;23223;51.006;7.610;2023-08-07T02:32:01;1.27;;;0.70;;
37339;SDS011;23223;51.006;7.610;2023-08-07T02:34:28;0.50;;;0.50;;
37339;SDS011;23223;51.006;7.610;2023-08-07T02:36:56;1.10;;;1.00;;
37339;SDS011;23223;51.006;7.610;2023-08-07T02:39:22;1.90;;;0.57;;
37339;SDS011;23223;51.006;7.610;2023-08-07T02:41:48;1.30;;;0.50;;
37339;SDS011;23223;51.006;7.610;2023-08-07T02:44:14;0.68;;;0.60;;
37339;SDS011;23223;51.006;7.610;2023-08-07T02:46:39;1.27;;;0.57;;
37339;SDS011;23223;51.006;7.610;2023-08-07T02:49:05;1.30;;;0.52;;
37339;SDS011;23223;51.006;7.610;2023-08-07T02:51:30;0.40;;;0.40;;
37339;SDS011;23223;51.006;7.610;2023-08-07T02:53:57;0.95;;;0.85;;
37339;SDS011;23223;51.006;7.610;2023-08-07T02:56:22;0.70;;;0.50;;
37339;SDS011;23223;51.006;7.610;2023-08-07T02:58:48;1.48;;;0.70;;
37339;SDS011;23223;51.006;7.610;2023-08-07T03:01:13;2.67;;;0.77;;
37339;SDS011;23223;51.006;7.610;2023-08-07T03:03:39;0.50;;;0.50;;
37339;SDS011;23223;51.006;7.610;2023-08-07T03:06:05;1.00;;;0.85;;
37339;SDS011;23223;51.006;7.610;2023-08-07T03:08:30;1.13;;;0.70;;
37339;SDS011;23223;51.006;7.610;2023-08-07T03:10:56;1.27;;;0.95;;
37339;SDS011;23223;51.006;7.610;2023-08-07T03:13:23;3.60;;;0.95;;
37339;SDS011;23223;51.006;7.610;2023-08-07T03:15:49;3.80;;;1.00;;
37339;SDS011;23223;51.006;7.610;2023-08-07T03:18:18;3.75;;;0.80;;
37339;SDS011;23223;51.006;7.610;2023-08-07T03:20:44;1.10;;;0.80;;
37339;SDS011;23223;51.006;7.610;2023-08-07T03:23:10;1.00;;;0.70;;
37339;SDS011;23223;51.006;7.610;2023-08-07T03:25:36;1.48;;;0.90;;
37339;SDS011;23223;51.006;7.610;2023-08-07T03:28:02;2.95;;;0.90;;
37339;SDS011;23223;51.006;7.610;2023-08-07T03:30:28;1.15;;;0.60;;
37339;SDS011;23223;51.006;7.610;2023-08-07T03:32:53;0.32;;;0.32;;
37339;SDS011;23223;51.006;7.610;2023-08-07T03:35:19;0.90;;;0.80;;
37339;SDS011;23223;51.006;7.610;2023-08-07T03:37:44;1.42;;;1.00;;
37339;SDS011;23223;51.006;7.610;2023-08-07T03:40:10;2.15;;;0.98;;
37339;SDS011;23223;51.006;7.610;2023-08-07T03:42:36;0.57;;;0.57;;
37339;SDS011;23223;51.006;7.610;2023-08-07T03:45:01;1.23;;;1.02;;
37339;SDS011;23223;51.006;7.610;2023-08-07T03:47:27;2.33;;;0.68;;
37339;SDS011;23223;51.006;7.610;2023-08-07T03:49:52;1.02;;;0.65;;
37339;SDS011;23223;51.006;7.610;2023-08-07T03:52:18;1.50;;;0.65;;
37339;SDS011;23223;51.006;7.610;2023-08-07T03:54:44;0.95;;;0.55;;
37339;SDS011;23223;51.006;7.610;2023-08-07T03:57:09;1.90;;;0.65;;
37339;SDS011;23223;51.006;7.610;2023-08-07T03:59:36;2.45;;;0.73;;
37339;SDS011;23223;51.006;7.610;2023-08-07T04:02:01;0.70;;;0.70;;
37339;SDS011;23223;51.006;7.610;2023-08-07T04:04:27;1.55;;;1.00;;
37339;SDS011;23223;51.006;7.610;2023-08-07T04:06:53;1.40;;;0.50;;
37339;SDS011;23223;51.006;7.610;2023-08-07T04:09:18;0.50;;;0.50;;
37339;SDS011;23223;51.006;7.610;2023-08-07T04:11:44;0.60;;;0.60;;
37339;SDS011;23223;51.006;7.610;2023-08-07T04:14:09;0.55;;;0.55;;
37339;SDS011;23223;51.006;7.610;2023-08-07T04:16:36;0.50;;;0.50;;
37339;SDS011;23223;51.006;7.610;2023-08-07T04:19:02;2.33;;;0.57;;
37339;SDS011;23223;51.006;7.610;2023-08-07T04:21:28;0.40;;;0.40;;
37339;SDS011;23223;51.006;7.610;2023-08-07T04:23:55;1.13;;;0.60;;
37339;SDS011;23223;51.006;7.610;2023-08-07T04:26:20;1.42;;;0.60;;
37339;SDS011;23223;51.006;7.610;2023-08-07T04:28:46;0.85;;;0.65;;
37339;SDS011;23223;51.006;7.610;2023-08-07T04:31:11;1.10;;;0.70;;
37339;SDS011;23223;51.006;7.610;2023-08-07T04:33:37;0.80;;;0.73;;
37339;SDS011;23223;51.006;7.610;2023-08-07T04:36:03;1.73;;;0.82;;
37339;SDS011;23223;51.006;7.610;2023-08-07T04:38:29;4.47;;;1.17;;
37339;SDS011;23223;51.006;7.610;2023-08-07T04:40:54;3.95;;;1.60;;
37339;SDS011;23223;51.006;7.610;2023-08-07T04:43:20;2.10;;;1.52;;
37339;SDS011;23223;51.006;7.610;2023-08-07T04:45:46;5.50;;;1.80;;
37339;SDS011;23223;51.006;7.610;2023-08-07T04:48:11;2.22;;;1.15;;
37339;SDS011;23223;51.006;7.610;2023-08-07T04:50:37;3.08;;;1.80;;
37339;SDS011;23223;51.006;7.610;2023-08-07T04:53:06;4.00;;;1.48;;
37339;SDS011;23223;51.006;7.610;2023-08-07T04:55:32;5.18;;;2.35;;
37339;SDS011;23223;51.006;7.610;2023-08-07T04:57:58;4.93;;;1.88;;
37339;SDS011;23223;51.006;7.610;2023-08-07T05:00:24;2.22;;;1.52;;
37339;SDS011;23223;51.006;7.610;2023-08-07T05:02:49;3.55;;;1.50;;
37339;SDS011;23223;51.006;7.610;2023-08-07T05:05:16;7.80;;;1.67;;
37339;SDS011;23223;51.006;7.610;2023-08-07T05:07:46;2.92;;;1.55;;
37339;SDS011;23223;51.006;7.610;2023-08-07T05:10:12;8.30;;;2.00;;
37339;SDS011;23223;51.006;7.610;2023-08-07T05:12:38;5.70;;;2.08;;
37339;SDS011;23223;51.006;7.610;2023-08-07T05:15:03;9.77;;;2.42;;
37339;SDS011;23223;51.006;7.610;2023-08-07T05:17:29;10.18;;;2.83;;
37339;SDS011;23223;51.006;7.610;2023-08-07T05:19:56;2.83;;;1.45;;
37339;SDS011;23223;51.006;7.610;2023-08-07T05:22:21;3.22;;;1.85;;
37339;SDS011;23223;51.006;7.610;2023-08-07T05:24:47;17.50;;;2.45;;
37339;SDS011;23223;51.006;7.610;2023-08-07T05:27:13;4.72;;;2.05;;
37339;SDS011;23223;51.006;7.610;2023-08-07T05:29:39;1.38;;;1.23;;
37339;SDS011;23223;51.006;7.610;2023-08-07T05:32:11;3.97;;;1.40;;
37339;SDS011;23223;51.006;7.610;2023-08-07T05:34:38;2.55;;;1.77;;
37339;SDS011;23223;51.006;7.610;2023-08-07T05:37:04;3.38;;;1.38;;
37339;SDS011;23223;51.006;7.610;2023-08-07T05:39:30;5.25;;;1.77;;
37339;SDS011;23223;51.006;7.610;2023-08-07T05:41:55;4.15;;;1.52;;
37339;SDS011;23223;51.006;7.610;2023-08-07T05:44:23;2.33;;;1.30;;
37339;SDS011;23223;51.006;7.610;2023-08-07T05:46:49;3.58;;;1.42;;
37339;SDS011;23223;51.006;7.610;2023-08-07T05:49:15;9.38;;;1.70;;
37339;SDS011;23223;51.006;7.610;2023-08-07T05:51:41;3.10;;;1.52;;
37339;SDS011;23223;51.006;7.610;2023-08-07T05:54:06;3.72;;;1.13;;
37339;SDS011;23223;51.006;7.610;2023-08-07T05:56:32;2.05;;;1.70;;
37339;SDS011;23223;51.006;7.610;2023-08-07T05:58:57;2.85;;;0.82;;
37339;SDS011;23223;51.006;7.610;2023-08-07T06:01:23;2.17;;;1.27;;
37339;SDS011;23223;51.006;7.610;2023-08-07T06:03:54;2.95;;;1.67;;
37339;SDS011;23223;51.006;7.610;2023-08-07T06:06:20;3.60;;;1.75;;
37339;SDS011;23223;51.006;7.610;2023-08-07T06:08:45;3.42;;;1.02;;
37339;SDS011;23223;51.006;7.610;2023-08-07T06:11:11;4.18;;;1.60;;
37339;SDS011;23223;51.006;7.610;2023-08-07T06:13:37;4.40;;;2.00;;
37339;SDS011;23223;51.006;7.610;2023-08-07T06:16:02;5.88;;;2.70;;
37339;SDS011;23223;51.006;7.610;2023-08-07T06:18:28;2.83;;;1.75;;
37339;SDS011;23223;51.006;7.610;2023-08-07T06:20:55;5.38;;;1.98;;
37339;SDS011;23223;51.006;7.610;2023-08-07T06:23:21;2.88;;;2.10;;
37339;SDS011;23223;51.006;7.610;2023-08-07T06:25:47;7.65;;;2.17;;
37339;SDS011;23223;51.006;7.610;2023-08-07T06:28:12;3.88;;;1.67;;
37339;SDS011;23223;51.006;7.610;2023-08-07T06:30:38;1.73;;;1.60;;
37339;SDS011;23223;51.006;7.610;2023-08-07T06:33:03;7.82;;;2.70;;
37339;SDS011;23223;51.006;7.610;2023-08-07T06:35:29;3.42;;;2.00;;
37339;SDS011;23223;51.006;7.610;2023-08-07T06:37:54;3.63;;;2.28;;
37339;SDS011;23223;51.006;7.610;2023-08-07T06:40:20;4.65;;;2.17;;
37339;SDS011;23223;51.006;7.610;2023-08-07T06:42:46;6.47;;;2.45;;
37339;SDS011;23223;51.006;7.610;2023-08-07T06:45:11;3.72;;;2.25;;
37339;SDS011;23223;51.006;7.610;2023-08-07T06:47:37;5.25;;;2.70;;
37339;SDS011;23223;51.006;7.610;2023-08-07T06:50:02;5.80;;;2.50;;
37339;SDS011;23223;51.006;7.610;2023-08-07T06:52:28;2.67;;;2.08;;
37339;SDS011;23223;51.006;7.610;2023-08-07T06:54:53;3.38;;;2.38;;
37339;SDS011;23223;51.006;7.610;2023-08-07T06:57:19;2.67;;;1.80;;
37339;SDS011;23223;51.006;7.610;2023-08-07T06:59:44;3.55;;;1.90;;
37339;SDS011;23223;51.006;7.610;2023-08-07T07:02:10;4.65;;;2.10;;
37339;SDS011;23223;51.006;7.610;2023-08-07T07:04:36;3.13;;;2.10;;
37339;SDS011;23223;51.006;7.610;2023-08-07T07:07:02;3.88;;;2.30;;
37339;SDS011;23223;51.006;7.610;2023-08-07T07:09:28;2.42;;;1.30;;
37339;SDS011;23223;51.006;7.610;2023-08-07T07:11:54;1.90;;;1.55;;
37339;SDS011;23223;51.006;7.610;2023-08-07T07:14:20;1.75;;;1.33;;
37339;SDS011;23223;51.006;7.610;2023-08-07T07:16:46;3.40;;;1.65;;
37339;SDS011;23223;51.006;7.610;2023-08-07T07:19:12;2.38;;;1.52;;
37339;SDS011;23223;51.006;7.610;2023-08-07T07:21:38;1.85;;;0.93;;
37339;SDS011;23223;51.006;7.610;2023-08-07T07:24:03;7.07;;;2.10;;
37339;SDS011;23223;51.006;7.610;2023-08-07T07:26:29;1.77;;;1.63;;
37339;SDS011;23223;51.006;7.610;2023-08-07T07:28:55;4.38;;;1.35;;
37339;SDS011;23223;51.006;7.610;2023-08-07T07:31:21;2.70;;;1.30;;
37339;SDS011;23223;51.006;7.610;2023-08-07T07:33:47;2.08;;;1.20;;
37339;SDS011;23223;51.006;7.610;2023-08-07T07:36:14;1.17;;;1.08;;
37339;SDS011;23223;51.006;7.610;2023-08-07T07:38:41;2.10;;;1.02;;
37339;SDS011;23223;51.006;7.610;2023-08-07T07:41:06;2.90;;;1.10;;
37339;SDS011;23223;51.006;7.610;2023-08-07T07:43:35;2.15;;;1.25;;
37339;SDS011;23223;51.006;7.610;2023-08-07T07:46:01;1.23;;;1.05;;
37339;SDS011;23223;51.006;7.610;2023-08-07T07:48:26;1.23;;;1.13;;
37339;SDS011;23223;51.006;7.610;2023-08-07T07:50:57;1.25;;;0.85;;
37339;SDS011;23223;51.006;7.610;2023-08-07T07:53:24;2.00;;;1.20;;
37339;SDS011;23223;51.006;7.610;2023-08-07T07:55:50;4.25;;;1.45;;
37339;SDS011;23223;51.006;7.610;2023-08-07T07:58:16;2.25;;;1.25;;
37339;SDS011;23223;51.006;7.610;2023-08-07T08:00:41;1.60;;;1.38;;
37339;SDS011;23223;51.006;7.610;2023-08-07T08:03:07;1.77;;;1.10;;
37339;SDS011;23223;51.006;7.610;2023-08-07T08:05:33;2.42;;;1.50;;
37339;SDS011;23223;51.006;7.610;2023-08-07T08:08:00;2.22;;;1.15;;
37339;SDS011;23223;51.006;7.610;2023-08-07T08:10:26;2.13;;;1.02;;
37339;SDS011;23223;51.006;7.610;2023-08-07T08:12:54;1.45;;;0.95;;
37339;SDS011;23223;51.006;7.610;2023-08-07T08:15:21;1.20;;;0.85;;
37339;SDS011;23223;51.006;7.610;2023-08-07T08:17:47;3.08;;;1.23;;
37339;SDS011;23223;51.006;7.610;2023-08-07T08:20:13;2.15;;;1.25;;
37339;SDS011;23223;51.006;7.610;2023-08-07T08:22:43;0.65;;;0.63;;
37339;SDS011;23223;51.006;7.610;2023-08-07T08:25:10;0.90;;;0.70;;
37339;SDS011;23223;51.006;7.610;2023-08-07T08:27:36;0.90;;;0.60;;
37339;SDS011;23223;51.006;7.610;2023-08-07T08:30:02;1.30;;;0.77;;
37339;SDS011;23223;51.006;7.610;2023-08-07T08:32:29;1.23;;;0.90;;
37339;SDS011;23223;51.006;7.610;2023-08-07T08:34:59;1.42;;;0.98;;
37339;SDS011;23223;51.006;7.610;2023-08-07T08:37:25;0.95;;;0.95;;
37339;SDS011;23223;51.006;7.610;2023-08-07T08:39:51;1.52;;;0.88;;
37339;SDS011;23223;51.006;7.610;2023-08-07T08:42:17;0.65;;;0.60;;
37339;SDS011;23223;51.006;7.610;2023-08-07T08:44:45;0.98;;;0.75;;
37339;SDS011;23223;51.006;7.610;2023-08-07T08:47:25;0.60;;;0.60;;
37339;SDS011;23223;51.006;7.610;2023-08-07T08:50:12;0.75;;;0.73;;
37339;SDS011;23223;51.006;7.610;2023-08-07T08:52:41;2.13;;;0.75;;
37339;SDS011;23223;51.006;7.610;2023-08-07T08:55:08;1.88;;;0.85;;
37339;SDS011;23223;51.006;7.610;2023-08-07T08:57:35;1.10;;;1.00;;
37339;SDS011;23223;51.006;7.610;2023-08-07T09:00:02;1.02;;;0.80;;
37339;SDS011;23223;51.006;7.610;2023-08-07T09:02:40;1.58;;;0.90;;
37339;SDS011;23223;51.006;7.610;2023-08-07T09:05:06;1.60;;;0.80;;
37339;SDS011;23223;51.006;7.610;2023-08-07T09:07:32;4.38;;;1.20;;
37339;SDS011;23223;51.006;7.610;2023-08-07T09:09:59;1.17;;;0.80;;
37339;SDS011;23223;51.006;7.610;2023-08-07T09:12:29;6.10;;;1.65;;
37339;SDS011;23223;51.006;7.610;2023-08-07T09:14:57;0.82;;;0.68;;
37339;SDS011;23223;51.006;7.610;2023-08-07T09:17:24;3.25;;;1.35;;
37339;SDS011;23223;51.006;7.610;2023-08-07T09:19:54;5.13;;;1.05;;
37339;SDS011;23223;51.006;7.610;2023-08-07T09:22:20;1.75;;;1.13;;
37339;SDS011;23223;51.006;7.610;2023-08-07T09:24:46;2.97;;;1.10;;
37339;SDS011;23223;51.006;7.610;2023-08-07T09:27:11;2.05;;;1.00;;
37339;SDS011;23223;51.006;7.610;2023-08-07T09:29:39;4.55;;;1.70;;
37339;SDS011;23223;51.006;7.610;2023-08-07T09:32:08;6.10;;;1.13;;
37339;SDS011;23223;51.006;7.610;2023-08-07T09:34:38;5.25;;;1.00;;
37339;SDS011;23223;51.006;7.610;2023-08-07T09:37:04;4.60;;;1.63;;
37339;SDS011;23223;51.006;7.610;2023-08-07T09:39:30;3.88;;;1.27;;
37339;SDS011;23223;51.006;7.610;2023-08-07T09:41:56;5.85;;;1.70;;
37339;SDS011;23223;51.006;7.610;2023-08-07T09:44:22;4.97;;;1.70;;
37339;SDS011;23223;51.006;7.610;2023-08-07T09:46:47;3.63;;;1.50;;
37339;SDS011;23223;51.006;7.610;2023-08-07T09:49:13;3.40;;;1.40;;
37339;SDS011;23223;51.006;7.610;2023-08-07T09:51:45;3.20;;;1.17;;
37339;SDS011;23223;51.006;7.610;2023-08-07T09:54:11;2.28;;;1.48;;
37339;SDS011;23223;51.006;7.610;2023-08-07T09:56:40;2.25;;;1.15;;
37339;SDS011;23223;51.006;7.610;2023-08-07T09:59:06;2.05;;;1.38;;
37339;SDS011;23223;51.006;7.610;2023-08-07T10:01:33;2.38;;;1.30;;
37339;SDS011;23223;51.006;7.610;2023-08-07T10:04:01;1.92;;;1.23;;
37339;SDS011;23223;51.006;7.610;2023-08-07T10:06:27;2.92;;;1.15;;
37339;SDS011;23223;51.006;7.610;2023-08-07T10:08:52;3.10;;;1.50;;
37339;SDS011;23223;51.006;7.610;2023-08-07T10:11:19;3.75;;;1.30;;
37339;SDS011;23223;51.006;7.610;2023-08-07T10:13:46;8.70;;;2.78;;
37339;SDS011;23223;51.006;7.610;2023-08-07T10:16:12;14.35;;;3.22;;
37339;SDS011;23223;51.006;7.610;2023-08-07T10:18:39;7.55;;;2.10;;
37339;SDS011;23223;51.006;7.610;2023-08-07T10:21:05;7.70;;;2.08;;
37339;SDS011;23223;51.006;7.610;2023-08-07T10:23:35;5.38;;;2.45;;
37339;SDS011;23223;51.006;7.610;2023-08-07T10:26:02;4.32;;;2.45;;
37339;SDS011;23223;51.006;7.610;2023-08-07T10:28:30;8.07;;;2.58;;
37339;SDS011;23223;51.006;7.610;2023-08-07T10:31:02;4.85;;;1.92;;
37339;SDS011;23223;51.006;7.610;2023-08-07T10:33:29;8.20;;;2.58;;
37339;SDS011;23223;51.006;7.610;2023-08-07T10:35:57;8.02;;;3.00;;
37339;SDS011;23223;51.006;7.610;2023-08-07T10:38:24;8.10;;;3.20;;
37339;SDS011;23223;51.006;7.610;2023-08-07T10:41:00;8.38;;;3.05;;
37339;SDS011;23223;51.006;7.610;2023-08-07T10:43:26;8.73;;;2.90;;
37339;SDS011;23223;51.006;7.610;2023-08-07T10:45:53;7.82;;;2.75;;
37339;SDS011;23223;51.006;7.610;2023-08-07T10:48:24;11.55;;;2.33;;
37339;SDS011;23223;51.006;7.610;2023-08-07T10:50:57;10.38;;;3.13;;
37339;SDS011;23223;51.006;7.610;2023-08-07T10:53:31;7.93;;;2.85;;
37339;SDS011;23223;51.006;7.610;2023-08-07T10:56:09;11.27;;;3.72;;
37339;SDS011;23223;51.006;7.610;2023-08-07T10:58:54;8.85;;;2.70;;
37339;SDS011;23223;51.006;7.610;2023-08-07T11:03:58;9.80;;;2.85;;
37339;SDS011;23223;51.006;7.610;2023-08-07T11:06:28;8.32;;;2.92;;
37339;SDS011;23223;51.006;7.610;2023-08-07T11:08:58;6.45;;;2.70;;
37339;SDS011;23223;51.006;7.610;2023-08-07T11:11:26;8.52;;;3.05;;
37339;SDS011;23223;51.006;7.610;2023-08-07T11:13:51;6.72;;;1.77;;
37339;SDS011;23223;51.006;7.610;2023-08-07T11:16:17;2.67;;;1.65;;
37339;SDS011;23223;51.006;7.610;2023-08-07T11:18:45;7.25;;;2.50;;
37339;SDS011;23223;51.006;7.610;2023-08-07T11:21:12;7.78;;;2.42;;
37339;SDS011;23223;51.006;7.610;2023-08-07T11:23:38;7.88;;;2.10;;
37339;SDS011;23223;51.006;7.610;2023-08-07T11:26:05;6.70;;;2.22;;
37339;SDS011;23223;51.006;7.610;2023-08-07T11:28:30;10.35;;;2.63;;
37339;SDS011;23223;51.006;7.610;2023-08-07T11:30:56;9.65;;;2.55;;
37339;SDS011;23223;51.006;7.610;2023-08-07T11:33:26;12.88;;;2.63;;
37339;SDS011;23223;51.006;7.610;2023-08-07T11:35:53;7.25;;;2.40;;
37339;SDS011;23223;51.006;7.610;2023-08-07T11:38:32;7.43;;;2.10;;
37339;SDS011;23223;51.006;7.610;2023-08-07T11:41:03;7.50;;;2.38;;
37339;SDS011;23223;51.006;7.610;2023-08-07T11:43:33;6.18;;;2.00;;
37339;SDS011;23223;51.006;7.610;2023-08-07T11:46:03;8.65;;;2.03;;
37339;SDS011;23223;51.006;7.610;2023-08-07T11:48:31;14.50;;;2.40;;
37339;SDS011;23223;51.006;7.610;2023-08-07T11:50:58;6.45;;;2.10;;
37339;SDS011;23223;51.006;7.610;2023-08-07T11:53:25;8.60;;;2.65;;
37339;SDS011;23223;51.006;7.610;2023-08-07T11:55:56;5.65;;;1.90;;
37339;SDS011;23223;51.006;7.610;2023-08-07T11:58:35;5.38;;;1.60;;
37339;SDS011;23223;51.006;7.610;2023-08-07T12:01:06;4.13;;;1.95;;
37339;SDS011;23223;51.006;7.610;2023-08-07T12:03:36;7.63;;;1.63;;
37339;SDS011;23223;51.006;7.610;2023-08-07T12:06:07;5.03;;;1.73;;
37339;SDS011;23223;51.006;7.610;2023-08-07T12:08:34;8.38;;;2.20;;
37339;SDS011;23223;51.006;7.610;2023-08-07T12:11:04;9.20;;;2.58;;
37339;SDS011;23223;51.006;7.610;2023-08-07T12:13:31;11.25;;;2.55;;
37339;SDS011;23223;51.006;7.610;2023-08-07T12:16:00;4.32;;;1.90;;
37339;SDS011;23223;51.006;7.610;2023-08-07T12:18:26;8.23;;;1.83;;
37339;SDS011;23223;51.006;7.610;2023-08-07T12:20:52;7.70;;;2.45;;
37339;SDS011;23223;51.006;7.610;2023-08-07T12:23:23;7.47;;;2.40;;
37339;SDS011;23223;51.006;7.610;2023-08-07T12:25:48;10.20;;;2.25;;
37339;SDS011;23223;51.006;7.610;2023-08-07T12:28:15;8.30;;;2.13;;
37339;SDS011;23223;51.006;7.610;2023-08-07T12:30:43;5.53;;;2.05;;
37339;SDS011;23223;51.006;7.610;2023-08-07T12:33:10;7.47;;;2.10;;
37339;SDS011;23223;51.006;7.610;2023-08-07T12:35:36;5.75;;;1.67;;
37339;SDS011;23223;51.006;7.610;2023-08-07T12:38:02;4.22;;;1.98;;
37339;SDS011;23223;51.006;7.610;2023-08-07T12:40:30;3.40;;;1.58;;
37339;SDS011;23223;51.006;7.610;2023-08-07T12:42:56;4.85;;;1.80;;
37339;SDS011;23223;51.006;7.610;2023-08-07T12:45:23;3.10;;;0.98;;
37339;SDS011;23223;51.006;7.610;2023-08-07T12:47:49;4.55;;;1.60;;
37339;SDS011;23223;51.006;7.610;2023-08-07T12:50:14;4.85;;;1.98;;
37339;SDS011;23223;51.006;7.610;2023-08-07T12:52:40;8.60;;;1.80;;
37339;SDS011;23223;51.006;7.610;2023-08-07T12:55:06;1.92;;;0.80;;
37339;SDS011;23223;51.006;7.610;2023-08-07T12:57:32;3.03;;;1.60;;
37339;SDS011;23223;51.006;7.610;2023-08-07T12:59:58;3.22;;;1.33;;
37339;SDS011;23223;51.006;7.610;2023-08-07T13:02:23;2.05;;;0.95;;
37339;SDS011;23223;51.006;7.610;2023-08-07T13:04:49;7.03;;;2.42;;
37339;SDS011;23223;51.006;7.610;2023-08-07T13:07:15;5.47;;;1.00;;
37339;SDS011;23223;51.006;7.610;2023-08-07T13:09:42;3.25;;;1.90;;
37339;SDS011;23223;51.006;7.610;2023-08-07T13:12:07;3.90;;;1.65;;
37339;SDS011;23223;51.006;7.610;2023-08-07T13:14:33;13.23;;;1.98;;
37339;SDS011;23223;51.006;7.610;2023-08-07T13:16:58;6.88;;;1.75;;
37339;SDS011;23223;51.006;7.610;2023-08-07T13:19:24;3.72;;;1.58;;
37339;SDS011;23223;51.006;7.610;2023-08-07T13:21:49;4.03;;;1.70;;
37339;SDS011;23223;51.006;7.610;2023-08-07T13:24:15;4.65;;;1.50;;
37339;SDS011;23223;51.006;7.610;2023-08-07T13:26:40;7.35;;;1.58;;
37339;SDS011;23223;51.006;7.610;2023-08-07T13:29:13;2.97;;;1.40;;
37339;SDS011;23223;51.006;7.610;2023-08-07T13:31:39;2.67;;;1.15;;
37339;SDS011;23223;51.006;7.610;2023-08-07T13:34:06;3.50;;;1.38;;
37339;SDS011;23223;51.006;7.610;2023-08-07T13:36:36;1.60;;;0.88;;
37339;SDS011;23223;51.006;7.610;2023-08-07T13:39:03;4.63;;;1.40;;
37339;SDS011;23223;51.006;7.610;2023-08-07T13:41:29;6.78;;;1.80;;
37339;SDS011;23223;51.006;7.610;2023-08-07T13:43:55;4.63;;;2.00;;
37339;SDS011;23223;51.006;7.610;2023-08-07T13:46:20;6.72;;;1.67;;
37339;SDS011;23223;51.006;7.610;2023-08-07T13:48:47;2.30;;;0.88;;
37339;SDS011;23223;51.006;7.610;2023-08-07T13:51:13;7.15;;;1.40;;
37339;SDS011;23223;51.006;7.610;2023-08-07T13:53:39;3.15;;;1.10;;
37339;SDS011;23223;51.006;7.610;2023-08-07T13:56:06;7.22;;;1.67;;
37339;SDS011;23223;51.006;7.610;2023-08-07T13:58:33;3.53;;;1.90;;
37339;SDS011;23223;51.006;7.610;2023-08-07T14:00:59;2.88;;;1.35;;
37339;SDS011;23223;51.006;7.610;2023-08-07T14:03:25;5.68;;;1.63;;
37339;SDS011;23223;51.006;7.610;2023-08-07T14:05:50;2.45;;;1.45;;
37339;SDS011;23223;51.006;7.610;2023-08-07T14:08:16;4.97;;;1.50;;
37339;SDS011;23223;51.006;7.610;2023-08-07T14:10:42;7.15;;;1.92;;
37339;SDS011;23223;51.006;7.610;2023-08-07T14:13:08;6.20;;;1.48;;
37339;SDS011;23223;51.006;7.610;2023-08-07T14:15:34;3.20;;;1.80;;
37339;SDS011;23223;51.006;7.610;2023-08-07T14:18:00;8.52;;;1.83;;
37339;SDS011;23223;51.006;7.610;2023-08-07T14:20:26;0.75;;;0.65;;
37339;SDS011;23223;51.006;7.610;2023-08-07T14:22:52;3.63;;;1.27;;
37339;SDS011;23223;51.006;7.610;2023-08-07T14:25:18;1.60;;;1.20;;
37339;SDS011;23223;51.006;7.610;2023-08-07T14:27:43;4.47;;;1.33;;
37339;SDS011;23223;51.006;7.610;2023-08-07T14:30:09;3.03;;;1.00;;
37339;SDS011;23223;51.006;7.610;2023-08-07T14:32:35;4.22;;;1.40;;
37339;SDS011;23223;51.006;7.610;2023-08-07T14:35:01;6.28;;;2.15;;
37339;SDS011;23223;51.006;7.610;2023-08-07T14:37:26;4.90;;;1.50;;
37339;SDS011;23223;51.006;7.610;2023-08-07T14:39:52;2.72;;;1.75;;
37339;SDS011;23223;51.006;7.610;2023-08-07T14:42:17;3.03;;;1.65;;
37339;SDS011;23223;51.006;7.610;2023-08-07T14:44:43;3.65;;;1.10;;
37339;SDS011;23223;51.006;7.610;2023-08-07T14:47:08;2.15;;;1.60;;
37339;SDS011;23223;51.006;7.610;2023-08-07T14:49:34;7.80;;;2.03;;